sensor_id;sensor_type;location;lat;lon;timestamp;P1;durP1;ratioP1;P2;durP2;ratioP2
76729;SDS011;65653;53.106;18.046;2023-12-28T00:01:09;24.30;;;9.90;;
76729;SDS011;65653;53.106;18.046;2023-12-28T00:03:41;32.60;;;12.10;;
76729;SDS011;65653;53.106;18.046;2023-12-28T00:06:08;35.90;;;12.70;;
76729;SDS011;65653;53.106;18.046;2023-12-28T00:08:34;37.50;;;15.40;;
76729;SDS011;65653;53.106;18.046;2023-12-28T00:11:01;31.10;;;12.40;;
76729;SDS011;65653;53.106;18.046;2023-12-28T00:13:27;30.10;;;12.10;;
76729;SDS011;65653;53.106;18.046;2023-12-28T00:15:54;25.70;;;8.90;;
76729;SDS011;65653;53.106;18.046;2023-12-28T00:18:20;31.20;;;11.60;;
76729;SDS011;65653;53.106;18.046;2023-12-28T00:20:47;26.40;;;10.30;;
76729;SDS011;65653;53.106;18.046;2023-12-28T00:23:13;22.90;;;11.40;;
76729;SDS011;65653;53.106;18.046;2023-12-28T00:25:39;24.00;;;9.60;;
76729;SDS011;65653;53.106;18.046;2023-12-28T00:28:06;22.40;;;8.30;;
76729;SDS011;65653;53.106;18.046;2023-12-28T00:30:33;25.40;;;12.20;;
76729;SDS011;65653;53.106;18.046;2023-12-28T00:32:59;29.40;;;10.90;;
76729;SDS011;65653;53.106;18.046;2023-12-28T00:35:26;19.90;;;8.20;;
76729;SDS011;65653;53.106;18.046;2023-12-28T00:37:52;27.10;;;9.80;;
76729;SDS011;65653;53.106;18.046;2023-12-28T00:40:19;33.60;;;11.70;;
76729;SDS011;65653;53.106;18.046;2023-12-28T00:42:45;28.20;;;11.30;;
76729;SDS011;65653;53.106;18.046;2023-12-28T00:45:12;37.80;;;12.20;;
76729;SDS011;65653;53.106;18.046;2023-12-28T00:47:38;37.40;;;13.20;;
76729;SDS011;65653;53.106;18.046;2023-12-28T00:50:05;27.30;;;10.30;;
76729;SDS011;65653;53.106;18.046;2023-12-28T00:52:32;21.60;;;7.60;;
76729;SDS011;65653;53.106;18.046;2023-12-28T00:54:58;35.40;;;13.40;;
76729;SDS011;65653;53.106;18.046;2023-12-28T00:57:25;27.70;;;11.00;;
76729;SDS011;65653;53.106;18.046;2023-12-28T00:59:51;22.10;;;10.60;;
76729;SDS011;65653;53.106;18.046;2023-12-28T01:02:17;44.80;;;15.20;;
76729;SDS011;65653;53.106;18.046;2023-12-28T01:04:44;32.20;;;12.70;;
76729;SDS011;65653;53.106;18.046;2023-12-28T01:07:10;22.90;;;9.40;;
76729;SDS011;65653;53.106;18.046;2023-12-28T01:09:37;24.10;;;9.20;;
76729;SDS011;65653;53.106;18.046;2023-12-28T01:12:03;19.10;;;8.60;;
76729;SDS011;65653;53.106;18.046;2023-12-28T01:14:31;33.40;;;10.80;;
76729;SDS011;65653;53.106;18.046;2023-12-28T01:16:58;23.40;;;10.50;;
76729;SDS011;65653;53.106;18.046;2023-12-28T01:19:24;40.40;;;12.40;;
76729;SDS011;65653;53.106;18.046;2023-12-28T01:21:51;42.20;;;15.10;;
76729;SDS011;65653;53.106;18.046;2023-12-28T01:24:17;20.80;;;8.40;;
76729;SDS011;65653;53.106;18.046;2023-12-28T01:26:44;28.30;;;11.80;;
76729;SDS011;65653;53.106;18.046;2023-12-28T01:29:10;27.80;;;11.00;;
76729;SDS011;65653;53.106;18.046;2023-12-28T01:31:36;27.00;;;11.90;;
76729;SDS011;65653;53.106;18.046;2023-12-28T01:34:05;39.70;;;15.80;;
76729;SDS011;65653;53.106;18.046;2023-12-28T01:36:31;38.10;;;13.60;;
76729;SDS011;65653;53.106;18.046;2023-12-28T01:38:58;31.40;;;13.20;;
76729;SDS011;65653;53.106;18.046;2023-12-28T01:41:24;26.00;;;11.40;;
76729;SDS011;65653;53.106;18.046;2023-12-28T01:43:51;21.80;;;7.80;;
76729;SDS011;65653;53.106;18.046;2023-12-28T01:46:18;23.10;;;9.10;;
76729;SDS011;65653;53.106;18.046;2023-12-28T01:48:49;25.60;;;10.00;;
76729;SDS011;65653;53.106;18.046;2023-12-28T01:51:17;24.20;;;9.60;;
76729;SDS011;65653;53.106;18.046;2023-12-28T01:53:43;19.70;;;8.50;;
76729;SDS011;65653;53.106;18.046;2023-12-28T01:56:11;9.00;;;4.80;;
76729;SDS011;65653;53.106;18.046;2023-12-28T01:58:38;23.50;;;10.00;;
76729;SDS011;65653;53.106;18.046;2023-12-28T02:01:08;28.90;;;6.90;;
76729;SDS011;65653;53.106;18.046;2023-12-28T02:03:37;21.00;;;8.00;;
76729;SDS011;65653;53.106;18.046;2023-12-28T02:06:04;25.10;;;9.80;;
76729;SDS011;65653;53.106;18.046;2023-12-28T02:08:33;17.60;;;7.20;;
76729;SDS011;65653;53.106;18.046;2023-12-28T02:10:59;21.20;;;9.70;;
76729;SDS011;65653;53.106;18.046;2023-12-28T02:13:26;11.90;;;5.50;;
76729;SDS011;65653;53.106;18.046;2023-12-28T02:16:03;12.10;;;4.80;;
76729;SDS011;65653;53.106;18.046;2023-12-28T02:18:38;8.20;;;4.60;;
76729;SDS011;65653;53.106;18.046;2023-12-28T02:21:09;11.90;;;6.50;;
76729;SDS011;65653;53.106;18.046;2023-12-28T02:23:38;11.80;;;5.50;;
76729;SDS011;65653;53.106;18.046;2023-12-28T02:26:05;11.30;;;4.40;;
76729;SDS011;65653;53.106;18.046;2023-12-28T02:28:31;15.30;;;5.50;;
76729;SDS011;65653;53.106;18.046;2023-12-28T02:30:58;21.30;;;8.00;;
76729;SDS011;65653;53.106;18.046;2023-12-28T02:33:36;11.80;;;6.20;;
76729;SDS011;65653;53.106;18.046;2023-12-28T02:36:20;9.50;;;5.20;;
76729;SDS011;65653;53.106;18.046;2023-12-28T02:38:49;17.60;;;5.70;;
76729;SDS011;65653;53.106;18.046;2023-12-28T02:41:18;20.10;;;7.50;;
76729;SDS011;65653;53.106;18.046;2023-12-28T02:43:46;20.40;;;7.90;;
76729;SDS011;65653;53.106;18.046;2023-12-28T02:46:15;11.50;;;4.90;;
76729;SDS011;65653;53.106;18.046;2023-12-28T02:48:41;12.80;;;5.30;;
76729;SDS011;65653;53.106;18.046;2023-12-28T02:51:08;13.10;;;4.00;;
76729;SDS011;65653;53.106;18.046;2023-12-28T02:53:35;9.70;;;4.00;;
76729;SDS011;65653;53.106;18.046;2023-12-28T02:56:01;11.40;;;5.40;;
76729;SDS011;65653;53.106;18.046;2023-12-28T02:58:27;13.60;;;6.60;;
76729;SDS011;65653;53.106;18.046;2023-12-28T03:00:54;20.30;;;7.50;;
76729;SDS011;65653;53.106;18.046;2023-12-28T03:03:20;20.70;;;6.30;;
76729;SDS011;65653;53.106;18.046;2023-12-28T03:05:47;14.30;;;5.30;;
76729;SDS011;65653;53.106;18.046;2023-12-28T03:08:13;19.20;;;7.10;;
76729;SDS011;65653;53.106;18.046;2023-12-28T03:10:40;13.70;;;5.40;;
76729;SDS011;65653;53.106;18.046;2023-12-28T03:13:06;22.80;;;7.70;;
76729;SDS011;65653;53.106;18.046;2023-12-28T03:15:33;15.10;;;5.60;;
76729;SDS011;65653;53.106;18.046;2023-12-28T03:17:59;23.40;;;8.20;;
76729;SDS011;65653;53.106;18.046;2023-12-28T03:20:26;8.00;;;4.20;;
76729;SDS011;65653;53.106;18.046;2023-12-28T03:22:52;14.10;;;5.40;;
76729;SDS011;65653;53.106;18.046;2023-12-28T03:25:19;8.00;;;3.90;;
76729;SDS011;65653;53.106;18.046;2023-12-28T03:27:45;11.80;;;4.90;;
76729;SDS011;65653;53.106;18.046;2023-12-28T03:30:12;16.70;;;7.30;;
76729;SDS011;65653;53.106;18.046;2023-12-28T03:32:38;8.80;;;4.20;;
76729;SDS011;65653;53.106;18.046;2023-12-28T03:35:05;20.60;;;7.70;;
76729;SDS011;65653;53.106;18.046;2023-12-28T03:37:33;29.40;;;7.80;;
76729;SDS011;65653;53.106;18.046;2023-12-28T03:39:59;11.90;;;5.20;;
76729;SDS011;65653;53.106;18.046;2023-12-28T03:42:26;8.20;;;4.20;;
76729;SDS011;65653;53.106;18.046;2023-12-28T03:44:52;13.50;;;5.10;;
76729;SDS011;65653;53.106;18.046;2023-12-28T03:47:19;14.00;;;6.20;;
76729;SDS011;65653;53.106;18.046;2023-12-28T03:49:45;16.20;;;6.80;;
76729;SDS011;65653;53.106;18.046;2023-12-28T03:52:12;18.00;;;6.80;;
76729;SDS011;65653;53.106;18.046;2023-12-28T03:54:39;18.90;;;6.90;;
76729;SDS011;65653;53.106;18.046;2023-12-28T03:57:05;18.70;;;7.60;;
76729;SDS011;65653;53.106;18.046;2023-12-28T03:59:32;12.90;;;5.60;;
76729;SDS011;65653;53.106;18.046;2023-12-28T04:01:58;16.50;;;6.40;;
76729;SDS011;65653;53.106;18.046;2023-12-28T04:04:25;15.90;;;6.20;;
76729;SDS011;65653;53.106;18.046;2023-12-28T04:06:56;12.80;;;6.20;;
76729;SDS011;65653;53.106;18.046;2023-12-28T04:09:22;16.60;;;6.70;;
76729;SDS011;65653;53.106;18.046;2023-12-28T04:11:48;16.20;;;6.80;;
76729;SDS011;65653;53.106;18.046;2023-12-28T04:14:15;9.90;;;4.90;;
76729;SDS011;65653;53.106;18.046;2023-12-28T04:16:41;13.60;;;5.20;;
76729;SDS011;65653;53.106;18.046;2023-12-28T04:19:08;12.80;;;6.00;;
76729;SDS011;65653;53.106;18.046;2023-12-28T04:21:34;18.60;;;7.10;;
76729;SDS011;65653;53.106;18.046;2023-12-28T04:24:01;13.10;;;5.70;;
76729;SDS011;65653;53.106;18.046;2023-12-28T04:26:28;11.20;;;4.50;;
76729;SDS011;65653;53.106;18.046;2023-12-28T04:28:55;10.50;;;4.00;;
76729;SDS011;65653;53.106;18.046;2023-12-28T04:31:21;16.10;;;6.00;;
76729;SDS011;65653;53.106;18.046;2023-12-28T04:33:47;11.80;;;5.20;;
76729;SDS011;65653;53.106;18.046;2023-12-28T04:36:14;6.30;;;3.80;;
76729;SDS011;65653;53.106;18.046;2023-12-28T04:38:41;15.20;;;6.10;;
76729;SDS011;65653;53.106;18.046;2023-12-28T04:41:09;10.40;;;4.50;;
76729;SDS011;65653;53.106;18.046;2023-12-28T04:43:35;16.00;;;6.70;;
76729;SDS011;65653;53.106;18.046;2023-12-28T04:46:02;10.50;;;4.50;;
76729;SDS011;65653;53.106;18.046;2023-12-28T04:48:34;20.80;;;8.40;;
76729;SDS011;65653;53.106;18.046;2023-12-28T04:51:04;22.10;;;8.40;;
76729;SDS011;65653;53.106;18.046;2023-12-28T04:53:30;30.60;;;9.90;;
76729;SDS011;65653;53.106;18.046;2023-12-28T04:55:58;16.40;;;6.60;;
76729;SDS011;65653;53.106;18.046;2023-12-28T04:58:24;15.10;;;6.90;;
76729;SDS011;65653;53.106;18.046;2023-12-28T05:00:51;18.80;;;7.30;;
76729;SDS011;65653;53.106;18.046;2023-12-28T05:03:17;13.40;;;5.90;;
76729;SDS011;65653;53.106;18.046;2023-12-28T05:05:44;23.30;;;9.60;;
76729;SDS011;65653;53.106;18.046;2023-12-28T05:08:11;18.10;;;7.10;;
76729;SDS011;65653;53.106;18.046;2023-12-28T05:10:37;13.60;;;6.60;;
76729;SDS011;65653;53.106;18.046;2023-12-28T05:13:04;19.60;;;8.10;;
76729;SDS011;65653;53.106;18.046;2023-12-28T05:15:30;22.90;;;10.20;;
76729;SDS011;65653;53.106;18.046;2023-12-28T05:17:57;14.30;;;5.20;;
76729;SDS011;65653;53.106;18.046;2023-12-28T05:20:23;22.10;;;9.30;;
76729;SDS011;65653;53.106;18.046;2023-12-28T05:22:50;16.60;;;7.80;;
76729;SDS011;65653;53.106;18.046;2023-12-28T05:25:16;12.50;;;5.40;;
76729;SDS011;65653;53.106;18.046;2023-12-28T05:27:42;15.90;;;6.50;;
76729;SDS011;65653;53.106;18.046;2023-12-28T05:30:09;20.60;;;8.30;;
76729;SDS011;65653;53.106;18.046;2023-12-28T05:32:37;29.20;;;10.70;;
76729;SDS011;65653;53.106;18.046;2023-12-28T05:35:03;18.70;;;8.50;;
76729;SDS011;65653;53.106;18.046;2023-12-28T05:37:30;21.40;;;9.00;;
76729;SDS011;65653;53.106;18.046;2023-12-28T05:39:57;14.90;;;7.10;;
76729;SDS011;65653;53.106;18.046;2023-12-28T05:42:24;26.30;;;9.70;;
76729;SDS011;65653;53.106;18.046;2023-12-28T05:44:50;25.90;;;8.80;;
76729;SDS011;65653;53.106;18.046;2023-12-28T05:47:16;16.40;;;6.80;;
76729;SDS011;65653;53.106;18.046;2023-12-28T05:49:43;13.00;;;5.20;;
76729;SDS011;65653;53.106;18.046;2023-12-28T05:52:09;10.10;;;5.40;;
76729;SDS011;65653;53.106;18.046;2023-12-28T05:54:36;20.60;;;7.90;;
76729;SDS011;65653;53.106;18.046;2023-12-28T05:57:02;19.20;;;8.70;;
76729;SDS011;65653;53.106;18.046;2023-12-28T05:59:29;27.80;;;11.30;;
76729;SDS011;65653;53.106;18.046;2023-12-28T06:01:55;27.20;;;13.20;;
76729;SDS011;65653;53.106;18.046;2023-12-28T06:04:22;33.60;;;13.30;;
76729;SDS011;65653;53.106;18.046;2023-12-28T06:06:48;34.10;;;14.40;;
76729;SDS011;65653;53.106;18.046;2023-12-28T06:09:15;22.70;;;10.90;;
76729;SDS011;65653;53.106;18.046;2023-12-28T06:11:42;26.50;;;10.90;;
76729;SDS011;65653;53.106;18.046;2023-12-28T06:14:08;29.50;;;14.20;;
76729;SDS011;65653;53.106;18.046;2023-12-28T06:16:35;24.30;;;10.90;;
76729;SDS011;65653;53.106;18.046;2023-12-28T06:19:01;21.40;;;9.80;;
76729;SDS011;65653;53.106;18.046;2023-12-28T06:21:28;26.60;;;12.40;;
76729;SDS011;65653;53.106;18.046;2023-12-28T06:23:56;22.90;;;12.40;;
76729;SDS011;65653;53.106;18.046;2023-12-28T06:26:23;21.50;;;11.40;;
76729;SDS011;65653;53.106;18.046;2023-12-28T06:28:49;25.30;;;10.60;;
76729;SDS011;65653;53.106;18.046;2023-12-28T06:31:16;21.50;;;9.60;;
76729;SDS011;65653;53.106;18.046;2023-12-28T06:33:42;19.30;;;8.20;;
76729;SDS011;65653;53.106;18.046;2023-12-28T06:36:10;24.60;;;9.10;;
76729;SDS011;65653;53.106;18.046;2023-12-28T06:38:38;24.40;;;10.00;;
76729;SDS011;65653;53.106;18.046;2023-12-28T06:41:11;20.10;;;9.40;;
76729;SDS011;65653;53.106;18.046;2023-12-28T06:43:38;19.10;;;8.50;;
76729;SDS011;65653;53.106;18.046;2023-12-28T06:46:05;21.50;;;8.90;;
76729;SDS011;65653;53.106;18.046;2023-12-28T06:48:32;13.20;;;6.80;;
76729;SDS011;65653;53.106;18.046;2023-12-28T06:50:58;19.20;;;7.70;;
76729;SDS011;65653;53.106;18.046;2023-12-28T06:53:25;16.30;;;7.80;;
76729;SDS011;65653;53.106;18.046;2023-12-28T06:55:51;14.50;;;6.80;;
76729;SDS011;65653;53.106;18.046;2023-12-28T06:58:17;17.00;;;8.00;;
76729;SDS011;65653;53.106;18.046;2023-12-28T07:00:44;13.80;;;6.30;;
76729;SDS011;65653;53.106;18.046;2023-12-28T07:03:11;19.10;;;7.00;;
76729;SDS011;65653;53.106;18.046;2023-12-28T07:05:37;11.90;;;4.90;;
76729;SDS011;65653;53.106;18.046;2023-12-28T07:08:04;15.30;;;7.10;;
76729;SDS011;65653;53.106;18.046;2023-12-28T07:10:31;16.30;;;7.10;;
76729;SDS011;65653;53.106;18.046;2023-12-28T07:12:57;17.20;;;7.80;;
76729;SDS011;65653;53.106;18.046;2023-12-28T07:15:24;15.10;;;6.10;;
76729;SDS011;65653;53.106;18.046;2023-12-28T07:17:51;13.20;;;6.60;;
76729;SDS011;65653;53.106;18.046;2023-12-28T07:20:17;13.00;;;4.80;;
76729;SDS011;65653;53.106;18.046;2023-12-28T07:22:44;13.90;;;6.20;;
76729;SDS011;65653;53.106;18.046;2023-12-28T07:25:10;12.20;;;5.40;;
76729;SDS011;65653;53.106;18.046;2023-12-28T07:27:37;12.60;;;5.90;;
76729;SDS011;65653;53.106;18.046;2023-12-28T07:30:04;11.10;;;4.90;;
76729;SDS011;65653;53.106;18.046;2023-12-28T07:32:31;11.50;;;5.70;;
76729;SDS011;65653;53.106;18.046;2023-12-28T07:34:57;11.90;;;5.00;;
76729;SDS011;65653;53.106;18.046;2023-12-28T07:37:25;8.50;;;4.70;;
76729;SDS011;65653;53.106;18.046;2023-12-28T07:39:52;9.70;;;4.60;;
76729;SDS011;65653;53.106;18.046;2023-12-28T07:42:18;10.30;;;5.30;;
76729;SDS011;65653;53.106;18.046;2023-12-28T07:44:45;9.60;;;4.30;;
76729;SDS011;65653;53.106;18.046;2023-12-28T07:47:11;10.60;;;5.10;;
76729;SDS011;65653;53.106;18.046;2023-12-28T07:49:38;11.90;;;5.60;;
76729;SDS011;65653;53.106;18.046;2023-12-28T07:52:05;15.50;;;4.80;;
76729;SDS011;65653;53.106;18.046;2023-12-28T07:54:32;9.00;;;4.30;;
76729;SDS011;65653;53.106;18.046;2023-12-28T07:57:00;12.30;;;4.90;;
76729;SDS011;65653;53.106;18.046;2023-12-28T07:59:27;6.40;;;3.30;;
76729;SDS011;65653;53.106;18.046;2023-12-28T08:01:54;10.40;;;4.80;;
76729;SDS011;65653;53.106;18.046;2023-12-28T08:04:21;9.00;;;5.00;;
76729;SDS011;65653;53.106;18.046;2023-12-28T08:06:48;8.80;;;4.10;;
76729;SDS011;65653;53.106;18.046;2023-12-28T08:09:14;9.90;;;4.50;;
76729;SDS011;65653;53.106;18.046;2023-12-28T08:11:40;8.90;;;4.50;;
76729;SDS011;65653;53.106;18.046;2023-12-28T08:14:11;8.90;;;3.90;;
76729;SDS011;65653;53.106;18.046;2023-12-28T08:16:37;8.30;;;4.50;;
76729;SDS011;65653;53.106;18.046;2023-12-28T08:19:05;7.20;;;4.30;;
76729;SDS011;65653;53.106;18.046;2023-12-28T08:21:32;7.60;;;3.70;;
76729;SDS011;65653;53.106;18.046;2023-12-28T08:23:58;7.40;;;4.00;;
76729;SDS011;65653;53.106;18.046;2023-12-28T08:26:25;9.50;;;5.30;;
76729;SDS011;65653;53.106;18.046;2023-12-28T08:28:52;8.70;;;4.80;;
76729;SDS011;65653;53.106;18.046;2023-12-28T08:31:19;8.80;;;4.40;;
76729;SDS011;65653;53.106;18.046;2023-12-28T08:33:45;8.60;;;3.70;;
76729;SDS011;65653;53.106;18.046;2023-12-28T08:36:12;11.60;;;5.00;;
76729;SDS011;65653;53.106;18.046;2023-12-28T08:38:39;8.30;;;4.20;;
76729;SDS011;65653;53.106;18.046;2023-12-28T08:41:06;12.20;;;4.20;;
76729;SDS011;65653;53.106;18.046;2023-12-28T08:43:35;8.30;;;3.70;;
76729;SDS011;65653;53.106;18.046;2023-12-28T08:46:02;7.30;;;4.10;;
76729;SDS011;65653;53.106;18.046;2023-12-28T08:48:29;11.60;;;4.60;;
76729;SDS011;65653;53.106;18.046;2023-12-28T08:50:56;11.40;;;4.50;;
76729;SDS011;65653;53.106;18.046;2023-12-28T08:53:22;7.00;;;3.60;;
76729;SDS011;65653;53.106;18.046;2023-12-28T08:55:49;7.00;;;3.20;;
76729;SDS011;65653;53.106;18.046;2023-12-28T08:58:16;9.10;;;4.30;;
76729;SDS011;65653;53.106;18.046;2023-12-28T09:00:43;11.90;;;4.60;;
76729;SDS011;65653;53.106;18.046;2023-12-28T09:03:11;8.90;;;4.40;;
76729;SDS011;65653;53.106;18.046;2023-12-28T09:05:39;6.30;;;3.50;;
76729;SDS011;65653;53.106;18.046;2023-12-28T09:08:05;8.10;;;3.40;;
76729;SDS011;65653;53.106;18.046;2023-12-28T09:10:32;13.30;;;4.60;;
76729;SDS011;65653;53.106;18.046;2023-12-28T09:12:59;8.70;;;4.10;;
76729;SDS011;65653;53.106;18.046;2023-12-28T09:15:25;10.70;;;4.70;;
76729;SDS011;65653;53.106;18.046;2023-12-28T09:17:52;7.40;;;4.50;;
76729;SDS011;65653;53.106;18.046;2023-12-28T09:20:19;7.80;;;4.20;;
76729;SDS011;65653;53.106;18.046;2023-12-28T09:22:45;10.10;;;4.30;;
76729;SDS011;65653;53.106;18.046;2023-12-28T09:25:13;6.90;;;3.60;;
76729;SDS011;65653;53.106;18.046;2023-12-28T09:27:40;9.20;;;3.70;;
76729;SDS011;65653;53.106;18.046;2023-12-28T09:30:07;8.20;;;4.00;;
76729;SDS011;65653;53.106;18.046;2023-12-28T09:32:34;7.70;;;3.90;;
76729;SDS011;65653;53.106;18.046;2023-12-28T09:35:01;6.40;;;3.80;;
76729;SDS011;65653;53.106;18.046;2023-12-28T09:37:27;5.50;;;3.40;;
76729;SDS011;65653;53.106;18.046;2023-12-28T09:39:55;8.80;;;3.80;;
76729;SDS011;65653;53.106;18.046;2023-12-28T09:42:25;6.90;;;3.30;;
76729;SDS011;65653;53.106;18.046;2023-12-28T09:44:55;5.60;;;3.50;;
76729;SDS011;65653;53.106;18.046;2023-12-28T09:47:23;10.40;;;4.50;;
76729;SDS011;65653;53.106;18.046;2023-12-28T09:49:49;7.50;;;3.70;;
76729;SDS011;65653;53.106;18.046;2023-12-28T09:52:16;13.00;;;5.00;;
76729;SDS011;65653;53.106;18.046;2023-12-28T09:54:42;7.10;;;3.80;;
76729;SDS011;65653;53.106;18.046;2023-12-28T09:57:09;9.70;;;4.50;;
76729;SDS011;65653;53.106;18.046;2023-12-28T09:59:37;14.20;;;6.10;;
76729;SDS011;65653;53.106;18.046;2023-12-28T10:02:04;8.80;;;5.20;;
76729;SDS011;65653;53.106;18.046;2023-12-28T10:04:31;12.10;;;6.80;;
76729;SDS011;65653;53.106;18.046;2023-12-28T10:06:57;12.20;;;6.50;;
76729;SDS011;65653;53.106;18.046;2023-12-28T10:09:25;14.70;;;6.00;;
76729;SDS011;65653;53.106;18.046;2023-12-28T10:11:53;13.10;;;7.10;;
76729;SDS011;65653;53.106;18.046;2023-12-28T10:14:20;13.40;;;6.60;;
76729;SDS011;65653;53.106;18.046;2023-12-28T10:16:47;9.90;;;5.80;;
76729;SDS011;65653;53.106;18.046;2023-12-28T10:19:14;10.40;;;6.30;;
76729;SDS011;65653;53.106;18.046;2023-12-28T10:21:41;11.40;;;6.50;;
76729;SDS011;65653;53.106;18.046;2023-12-28T10:24:10;11.80;;;5.30;;
76729;SDS011;65653;53.106;18.046;2023-12-28T10:26:37;12.60;;;5.80;;
76729;SDS011;65653;53.106;18.046;2023-12-28T10:29:04;8.00;;;4.70;;
76729;SDS011;65653;53.106;18.046;2023-12-28T10:31:31;11.20;;;5.20;;
76729;SDS011;65653;53.106;18.046;2023-12-28T10:33:58;8.00;;;4.90;;
76729;SDS011;65653;53.106;18.046;2023-12-28T10:36:28;5.70;;;3.90;;
76729;SDS011;65653;53.106;18.046;2023-12-28T10:38:54;6.90;;;3.90;;
76729;SDS011;65653;53.106;18.046;2023-12-28T10:41:23;4.60;;;3.20;;
76729;SDS011;65653;53.106;18.046;2023-12-28T10:43:54;10.10;;;4.10;;
76729;SDS011;65653;53.106;18.046;2023-12-28T10:46:32;6.70;;;4.00;;
76729;SDS011;65653;53.106;18.046;2023-12-28T10:49:00;16.80;;;5.90;;
76729;SDS011;65653;53.106;18.046;2023-12-28T10:51:33;7.30;;;3.40;;
76729;SDS011;65653;53.106;18.046;2023-12-28T10:57:03;5.80;;;3.10;;
76729;SDS011;65653;53.106;18.046;2023-12-28T11:03:39;12.30;;;5.60;;
76729;SDS011;65653;53.106;18.046;2023-12-28T11:06:08;10.50;;;4.80;;
76729;SDS011;65653;53.106;18.046;2023-12-28T11:11:56;9.00;;;3.90;;
76729;SDS011;65653;53.106;18.046;2023-12-28T11:14:29;7.10;;;4.10;;
76729;SDS011;65653;53.106;18.046;2023-12-28T11:16:58;8.00;;;3.90;;
76729;SDS011;65653;53.106;18.046;2023-12-28T11:19:27;5.80;;;3.00;;
76729;SDS011;65653;53.106;18.046;2023-12-28T11:21:56;5.80;;;2.80;;
76729;SDS011;65653;53.106;18.046;2023-12-28T11:24:26;5.80;;;2.80;;
76729;SDS011;65653;53.106;18.046;2023-12-28T11:26:54;4.60;;;2.30;;
76729;SDS011;65653;53.106;18.046;2023-12-28T11:29:22;3.00;;;1.80;;
76729;SDS011;65653;53.106;18.046;2023-12-28T11:31:50;5.20;;;2.30;;
76729;SDS011;65653;53.106;18.046;2023-12-28T11:34:18;9.30;;;2.60;;
76729;SDS011;65653;53.106;18.046;2023-12-28T11:36:48;4.70;;;2.20;;
76729;SDS011;65653;53.106;18.046;2023-12-28T11:39:35;6.60;;;2.50;;
76729;SDS011;65653;53.106;18.046;2023-12-28T11:42:08;8.30;;;2.80;;
76729;SDS011;65653;53.106;18.046;2023-12-28T11:44:39;3.30;;;1.80;;
76729;SDS011;65653;53.106;18.046;2023-12-28T11:47:11;6.50;;;2.30;;
76729;SDS011;65653;53.106;18.046;2023-12-28T11:49:39;4.60;;;2.50;;
76729;SDS011;65653;53.106;18.046;2023-12-28T11:52:09;5.10;;;2.80;;
76729;SDS011;65653;53.106;18.046;2023-12-28T11:54:37;7.00;;;3.10;;
76729;SDS011;65653;53.106;18.046;2023-12-28T11:57:03;6.20;;;2.20;;
76729;SDS011;65653;53.106;18.046;2023-12-28T11:59:31;2.90;;;1.90;;
76729;SDS011;65653;53.106;18.046;2023-12-28T12:01:58;3.30;;;2.00;;
76729;SDS011;65653;53.106;18.046;2023-12-28T12:04:25;3.80;;;2.30;;
76729;SDS011;65653;53.106;18.046;2023-12-28T12:06:52;4.40;;;2.30;;
76729;SDS011;65653;53.106;18.046;2023-12-28T12:09:19;5.20;;;2.20;;
76729;SDS011;65653;53.106;18.046;2023-12-28T12:11:49;3.00;;;1.90;;
76729;SDS011;65653;53.106;18.046;2023-12-28T12:14:15;6.00;;;2.20;;
76729;SDS011;65653;53.106;18.046;2023-12-28T12:16:42;3.80;;;2.00;;
76729;SDS011;65653;53.106;18.046;2023-12-28T12:19:09;3.50;;;1.80;;
76729;SDS011;65653;53.106;18.046;2023-12-28T12:21:36;2.80;;;1.70;;
76729;SDS011;65653;53.106;18.046;2023-12-28T12:24:02;3.90;;;2.10;;
76729;SDS011;65653;53.106;18.046;2023-12-28T12:26:29;3.40;;;1.80;;
76729;SDS011;65653;53.106;18.046;2023-12-28T12:28:58;5.40;;;2.40;;
76729;SDS011;65653;53.106;18.046;2023-12-28T12:31:25;4.40;;;2.20;;
76729;SDS011;65653;53.106;18.046;2023-12-28T12:33:52;4.90;;;2.20;;
76729;SDS011;65653;53.106;18.046;2023-12-28T12:36:19;4.90;;;2.20;;
76729;SDS011;65653;53.106;18.046;2023-12-28T12:38:48;4.60;;;2.40;;
76729;SDS011;65653;53.106;18.046;2023-12-28T12:41:15;4.30;;;2.10;;
76729;SDS011;65653;53.106;18.046;2023-12-28T12:43:46;3.90;;;2.30;;
76729;SDS011;65653;53.106;18.046;2023-12-28T12:46:12;5.40;;;2.00;;
76729;SDS011;65653;53.106;18.046;2023-12-28T12:48:39;4.40;;;2.70;;
76729;SDS011;65653;53.106;18.046;2023-12-28T12:51:09;4.70;;;2.30;;
76729;SDS011;65653;53.106;18.046;2023-12-28T12:53:38;4.70;;;2.60;;
76729;SDS011;65653;53.106;18.046;2023-12-28T12:56:06;4.80;;;2.50;;
76729;SDS011;65653;53.106;18.046;2023-12-28T12:58:34;4.40;;;2.60;;
76729;SDS011;65653;53.106;18.046;2023-12-28T13:01:00;4.90;;;2.20;;
76729;SDS011;65653;53.106;18.046;2023-12-28T13:03:29;7.60;;;2.50;;
76729;SDS011;65653;53.106;18.046;2023-12-28T13:05:56;3.80;;;2.20;;
76729;SDS011;65653;53.106;18.046;2023-12-28T13:08:23;3.50;;;2.50;;
76729;SDS011;65653;53.106;18.046;2023-12-28T13:10:50;3.50;;;1.90;;
76729;SDS011;65653;53.106;18.046;2023-12-28T13:13:17;4.80;;;2.50;;
76729;SDS011;65653;53.106;18.046;2023-12-28T13:15:44;3.50;;;2.20;;
76729;SDS011;65653;53.106;18.046;2023-12-28T13:18:11;6.60;;;2.60;;
76729;SDS011;65653;53.106;18.046;2023-12-28T13:20:37;4.60;;;2.40;;
76729;SDS011;65653;53.106;18.046;2023-12-28T13:23:09;3.40;;;2.30;;
76729;SDS011;65653;53.106;18.046;2023-12-28T13:25:36;7.30;;;2.20;;
76729;SDS011;65653;53.106;18.046;2023-12-28T13:28:03;4.70;;;2.50;;
76729;SDS011;65653;53.106;18.046;2023-12-28T13:30:29;3.50;;;2.40;;
76729;SDS011;65653;53.106;18.046;2023-12-28T13:32:56;4.30;;;2.00;;
76729;SDS011;65653;53.106;18.046;2023-12-28T13:35:23;5.30;;;2.40;;
76729;SDS011;65653;53.106;18.046;2023-12-28T13:37:50;5.00;;;2.50;;
76729;SDS011;65653;53.106;18.046;2023-12-28T13:40:17;5.70;;;2.60;;
76729;SDS011;65653;53.106;18.046;2023-12-28T13:42:43;6.30;;;2.40;;
76729;SDS011;65653;53.106;18.046;2023-12-28T13:45:13;3.50;;;2.20;;
76729;SDS011;65653;53.106;18.046;2023-12-28T13:47:39;2.80;;;1.60;;
76729;SDS011;65653;53.106;18.046;2023-12-28T13:50:06;3.80;;;2.20;;
76729;SDS011;65653;53.106;18.046;2023-12-28T13:52:33;5.20;;;2.30;;
76729;SDS011;65653;53.106;18.046;2023-12-28T13:55:00;3.90;;;2.30;;
76729;SDS011;65653;53.106;18.046;2023-12-28T13:57:26;3.50;;;1.90;;
76729;SDS011;65653;53.106;18.046;2023-12-28T13:59:53;6.30;;;2.40;;
76729;SDS011;65653;53.106;18.046;2023-12-28T14:02:19;5.30;;;2.50;;
76729;SDS011;65653;53.106;18.046;2023-12-28T14:04:47;4.60;;;2.80;;
76729;SDS011;65653;53.106;18.046;2023-12-28T14:07:15;3.30;;;2.30;;
76729;SDS011;65653;53.106;18.046;2023-12-28T14:09:41;6.80;;;2.20;;
76729;SDS011;65653;53.106;18.046;2023-12-28T14:12:08;3.00;;;1.80;;
76729;SDS011;65653;53.106;18.046;2023-12-28T14:14:36;3.60;;;2.10;;
76729;SDS011;65653;53.106;18.046;2023-12-28T14:17:02;6.50;;;2.30;;
76729;SDS011;65653;53.106;18.046;2023-12-28T14:19:30;5.00;;;2.30;;
76729;SDS011;65653;53.106;18.046;2023-12-28T14:21:58;4.50;;;2.30;;
76729;SDS011;65653;53.106;18.046;2023-12-28T14:24:26;5.40;;;2.10;;
76729;SDS011;65653;53.106;18.046;2023-12-28T14:26:53;5.00;;;2.30;;
76729;SDS011;65653;53.106;18.046;2023-12-28T14:29:21;4.40;;;2.30;;
76729;SDS011;65653;53.106;18.046;2023-12-28T14:31:48;4.80;;;2.40;;
76729;SDS011;65653;53.106;18.046;2023-12-28T14:34:15;4.20;;;2.50;;
76729;SDS011;65653;53.106;18.046;2023-12-28T14:36:44;5.50;;;2.50;;